createdAt,value
2023-03-19T00:00:31.492Z,100014.66
2023-03-19T00:02:00.600Z,100016.50
2023-03-19T00:03:31.469Z,100010.44
2023-03-19T00:04:54.376Z,100011.44
2023-03-19T00:06:21.357Z,100020.00
2023-03-19T00:07:43.817Z,100014.25
2023-03-19T00:09:07.320Z,100000.31
2023-03-19T00:10:40.783Z,99983.56
2023-03-19T00:12:12.237Z,100025.84
2023-03-19T00:13:33.508Z,100024.13
2023-03-19T00:15:27.542Z,100033.19
2023-03-19T00:17:02.402Z,99996.41
2023-03-19T00:18:23.523Z,100029.13
2023-03-19T00:20:06.261Z,100033.78
2023-03-19T00:21:30.815Z,100038.50
2023-03-19T00:22:53.245Z,100016.50
2023-03-19T00:24:17.675Z,100003.25
2023-03-19T00:25:39.730Z,100005.94
2023-03-19T00:27:03.925Z,100032.78
2023-03-19T00:28:27.477Z,100028.91
2023-03-19T00:29:52.740Z,100028.22
2023-03-19T00:31:21.770Z,100035.75
2023-03-19T00:32:47.423Z,100029.06
2023-03-19T00:34:10.612Z,100015.63
2023-03-19T00:35:32.121Z,100028.41
2023-03-19T00:36:56.546Z,100034.72
2023-03-19T00:38:18.045Z,100011.28
2023-03-19T00:39:43.076Z,100010.25
2023-03-19T00:41:06.143Z,100011.22
2023-03-19T00:42:34.165Z,100041.44
2023-03-19T00:43:57.409Z,100019.09
2023-03-19T00:45:42.317Z,100038.22
2023-03-19T00:47:08.250Z,100031.34
2023-03-19T00:48:30.499Z,100006.03
2023-03-19T00:49:52.713Z,99998.97
2023-03-19T00:51:14.780Z,99981.41
2023-03-19T00:52:43.359Z,100011.91
2023-03-19T00:54:05.019Z,100006.56
2023-03-19T00:55:27.612Z,100020.28
2023-03-19T00:56:53.756Z,99998.66
2023-03-19T00:58:16.204Z,99998.66
2023-03-19T00:59:38.345Z,100014.44
2023-03-19T01:00:59.540Z,100005.69
2023-03-19T01:02:24.892Z,99986.25
2023-03-19T01:03:50.243Z,100015.75
2023-03-19T01:05:17.545Z,100009.88
2023-03-19T01:06:40.025Z,100013.38
2023-03-19T01:08:03.015Z,99995.25
2023-03-19T01:09:25.795Z,99993.25
2023-03-19T01:10:47.573Z,100002.16
2023-03-19T01:12:10.509Z,99974.66
2023-03-19T01:13:32.551Z,99994.28
2023-03-19T01:15:01.170Z,99982.69
2023-03-19T01:16:23.798Z,100006.50
2023-03-19T01:17:45.984Z,99973.63
2023-03-19T01:19:10.055Z,99991.53
2023-03-19T01:20:31.984Z,99993.03
2023-03-19T01:21:54.830Z,99981.63
2023-03-19T01:23:19.934Z,99988.00
2023-03-19T01:24:43.320Z,99984.09
2023-03-19T01:26:06.034Z,99972.03
2023-03-19T01:27:27.163Z,99972.84
2023-03-19T01:28:50.616Z,100015.09
2023-03-19T01:30:14.671Z,99990.47
2023-03-19T01:31:56.475Z,100008.56
2023-03-19T01:33:35.125Z,99989.41
2023-03-19T01:35:03.767Z,99971.81
2023-03-19T01:36:26.684Z,100002.81
2023-03-19T01:37:57.817Z,99953.66
2023-03-19T01:39:28.989Z,100005.81
2023-03-19T01:40:59.303Z,99982.31
2023-03-19T01:42:23.848Z,99989.03
2023-03-19T01:44:34.563Z,99953.44
2023-03-19T01:46:44.996Z,100011.25
2023-03-19T01:48:21.225Z,99970.34
2023-03-19T01:49:59.745Z,100012.41
2023-03-19T01:51:26.840Z,100003.34
2023-03-19T01:52:48.504Z,100001.81
2023-03-19T01:54:30.647Z,99988.19
2023-03-19T01:56:14.308Z,99970.56
2023-03-19T01:57:50.254Z,100016.06
2023-03-19T01:59:41.813Z,99967.75
2023-03-19T02:01:18.181Z,100008.50
2023-03-19T02:02:47.835Z,100012.16
2023-03-19T02:04:28.184Z,99989.66
2023-03-19T02:05:54.204Z,99963.47
2023-03-19T02:07:21.632Z,99966.16
2023-03-19T02:08:45.656Z,99961.97
2023-03-19T02:10:13.337Z,99997.84
2023-03-19T02:11:42.234Z,99972.03
2023-03-19T02:13:03.900Z,100001.72
2023-03-19T02:14:28.893Z,100022.84
2023-03-19T02:15:52.309Z,100027.34
2023-03-19T02:17:15.496Z,99997.16
2023-03-19T02:18:38.584Z,99986.59
2023-03-19T02:20:08.873Z,99981.03
2023-03-19T02:21:31.772Z,100008.72
2023-03-19T02:23:01.965Z,99987.25
2023-03-19T02:24:33.910Z,100020.13
2023-03-19T02:26:12.353Z,100017.66
2023-03-19T02:27:34.817Z,100013.25
2023-03-19T02:28:57.486Z,100023.84
2023-03-19T02:30:29.499Z,99993.94
2023-03-19T02:31:54.635Z,99988.91
2023-03-19T02:33:20.470Z,100025.97
2023-03-19T02:34:44.194Z,99998.00
2023-03-19T02:36:11.166Z,100028.34
2023-03-19T02:37:43.942Z,100030.84
2023-03-19T02:39:09.228Z,99977.38
2023-03-19T02:40:35.642Z,100027.34
2023-03-19T02:41:59.625Z,100009.41
2023-03-19T02:43:23.908Z,100012.47
2023-03-19T02:44:52.491Z,100018.13
2023-03-19T02:46:14.894Z,100030.03
2023-03-19T02:47:39.260Z,100011.72
2023-03-19T02:49:01.281Z,100006.84
2023-03-19T02:50:22.210Z,100036.53
2023-03-19T02:51:45.855Z,100023.09
2023-03-19T02:53:08.728Z,100018.81
2023-03-19T02:54:30.174Z,100008.91
2023-03-19T02:55:57.066Z,100031.03
2023-03-19T02:57:22.562Z,99990.88
2023-03-19T02:58:45.714Z,100027.66
2023-03-19T03:00:11.074Z,99981.53
2023-03-19T03:01:36.053Z,100003.34
2023-03-19T03:03:03.268Z,99987.53
2023-03-19T03:04:24.318Z,100004.31
2023-03-19T03:05:47.985Z,100032.84
2023-03-19T03:07:09.383Z,100030.03
2023-03-19T03:08:31.459Z,100039.75
2023-03-19T03:09:57.903Z,100032.84
2023-03-19T03:11:20.569Z,100011.03
2023-03-19T03:12:48.204Z,100000.66
2023-03-19T03:14:09.595Z,99996.59
2023-03-19T03:15:31.923Z,100000.50
2023-03-19T03:16:53.345Z,100025.81
2023-03-19T03:18:15.739Z,100028.13
2023-03-19T03:19:46.701Z,100017.75
2023-03-19T03:21:20.230Z,100002.72
2023-03-19T03:22:43.106Z,100027.75
2023-03-19T03:24:05.088Z,99992.66
2023-03-19T03:25:27.441Z,100016.16
2023-03-19T03:26:49.749Z,99993.13
2023-03-19T03:28:15.328Z,100034.25
2023-03-19T03:29:37.142Z,100009.78
2023-03-19T03:31:01.294Z,100035.91
2023-03-19T03:32:24.086Z,99990.28
2023-03-19T03:33:45.994Z,100016.78
2023-03-19T03:35:09.437Z,100011.06
2023-03-19T03:36:31.183Z,100023.78
2023-03-19T03:37:53.575Z,100042.41
2023-03-19T03:39:14.930Z,100040.75
2023-03-19T03:40:37.672Z,100041.56
2023-03-19T03:41:58.904Z,100042.59
2023-03-19T03:43:23.521Z,99996.13
2023-03-19T03:44:45.944Z,100012.66
2023-03-19T03:46:09.297Z,100043.72
2023-03-19T03:47:32.509Z,100048.91
2023-03-19T03:48:55.016Z,100016.84
2023-03-19T03:50:20.482Z,100038.00
2023-03-19T03:51:44.387Z,100035.34
2023-03-19T03:53:06.899Z,100000.06
2023-03-19T03:54:29.217Z,100007.63
2023-03-19T03:55:53.736Z,100022.44
2023-03-19T03:57:19.435Z,100020.91
2023-03-19T03:58:42.493Z,100006.47
2023-03-19T04:00:06.058Z,99999.75
2023-03-19T04:01:35.751Z,100021.97
2023-03-19T04:02:59.425Z,100003.44
2023-03-19T04:04:21.028Z,100032.94
2023-03-19T04:05:44.661Z,100036.47
2023-03-19T04:07:10.422Z,100032.28
2023-03-19T04:08:43.273Z,100012.28
2023-03-19T04:10:07.770Z,99994.81
2023-03-19T04:11:29.773Z,99994.44
2023-03-19T04:12:52.317Z,100040.59
2023-03-19T04:14:14.709Z,100017.94
2023-03-19T04:15:39.614Z,100006.88
2023-03-19T04:17:02.363Z,99991.22
2023-03-19T04:18:25.085Z,100034.88
2023-03-19T04:19:47.841Z,99998.94
2023-03-19T04:21:12.482Z,100039.88
2023-03-19T04:22:35.059Z,99997.63
2023-03-19T04:23:56.695Z,100034.56
2023-03-19T04:25:19.249Z,100012.03
2023-03-19T04:26:41.507Z,100033.56
2023-03-19T04:28:13.579Z,100007.84
2023-03-19T04:29:37.434Z,100033.88
2023-03-19T04:31:02.894Z,100023.97
2023-03-19T04:32:27.331Z,100019.78
2023-03-19T04:33:50.865Z,100022.13
2023-03-19T04:35:15.789Z,100032.88
2023-03-19T04:36:38.694Z,100043.44
2023-03-19T04:38:01.788Z,100033.56
2023-03-19T04:39:23.381Z,99984.06
2023-03-19T04:40:49.550Z,99984.06
2023-03-19T04:42:12.707Z,100001.81
2023-03-19T04:43:46.732Z,100005.03
2023-03-19T04:45:11.305Z,100022.97
2023-03-19T04:46:34.670Z,100027.16
2023-03-19T04:47:58.329Z,100024.50
2023-03-19T04:49:21.415Z,100031.66
2023-03-19T04:50:45.858Z,100019.78
2023-03-19T04:52:07.155Z,100001.91
2023-03-19T04:53:29.263Z,100037.31
2023-03-19T04:54:50.697Z,100019.22
2023-03-19T04:56:16.319Z,100029.44
2023-03-19T04:57:38.589Z,100013.06
2023-03-19T04:59:01.610Z,100014.72
2023-03-19T05:00:24.730Z,99994.03
2023-03-19T05:01:49.945Z,99972.91
2023-03-19T05:03:16.809Z,99970.53
2023-03-19T05:04:40.300Z,99995.44
2023-03-19T05:06:09.298Z,100018.69
2023-03-19T05:07:31.106Z,99994.19
2023-03-19T05:08:56.116Z,100030.75
2023-03-19T05:10:20.718Z,99986.09
2023-03-19T05:11:48.384Z,99984.25
2023-03-19T05:13:18.425Z,99988.47
2023-03-19T05:14:45.740Z,99979.94
2023-03-19T05:16:29.775Z,99985.66
2023-03-19T05:17:52.514Z,100033.78
2023-03-19T05:19:16.706Z,100027.78
2023-03-19T05:20:39.016Z,100035.03
2023-03-19T05:22:06.585Z,100034.88
2023-03-19T05:23:29.478Z,100019.78
2023-03-19T05:25:00.059Z,100038.91
2023-03-19T05:26:22.774Z,100016.94
2023-03-19T05:28:04.061Z,100017.63
2023-03-19T05:29:27.269Z,100044.50
2023-03-19T05:31:14.077Z,100015.97
2023-03-19T05:32:43.254Z,100008.41
2023-03-19T05:34:13.637Z,100014.13
2023-03-19T05:35:42.923Z,100036.06
2023-03-19T05:37:22.151Z,100013.44
2023-03-19T05:38:49.637Z,100032.44
2023-03-19T05:40:19.745Z,100036.84
2023-03-19T05:41:43.858Z,100027.59
2023-03-19T05:43:06.981Z,100043.41
2023-03-19T05:44:50.127Z,99998.28
2023-03-19T05:46:25.353Z,100003.50
2023-03-19T05:47:50.585Z,99990.28
2023-03-19T05:49:14.117Z,100009.44
2023-03-19T05:50:37.261Z,100042.19
2023-03-19T05:52:09.335Z,100009.81
2023-03-19T05:53:35.320Z,100024.06
2023-03-19T05:55:17.865Z,100023.94
2023-03-19T05:56:44.449Z,100047.16
2023-03-19T05:58:39.266Z,100002.94
2023-03-19T06:00:02.345Z,100045.59
2023-03-19T06:01:36.264Z,100054.38
2023-03-19T06:03:07.379Z,100003.59
2023-03-19T06:04:40.422Z,100034.22
2023-03-19T06:06:11.416Z,100042.72
2023-03-19T06:07:59.121Z,100044.78
2023-03-19T06:09:50.591Z,100047.16
2023-03-19T06:11:15.956Z,99988.84
2023-03-19T06:12:44.964Z,99991.91
2023-03-19T06:14:47.411Z,99994.13
2023-03-19T06:16:32.928Z,100011.28
2023-03-19T06:18:13.277Z,100043.81
2023-03-19T06:19:42.419Z,100042.16
2023-03-19T06:21:05.008Z,99997.44
2023-03-19T06:22:27.465Z,100026.25
2023-03-19T06:23:52.560Z,100019.06
2023-03-19T06:25:22.096Z,100035.94
2023-03-19T06:26:47.189Z,100037.47
2023-03-19T06:28:10.540Z,100020.19
2023-03-19T06:29:37.747Z,100034.94
2023-03-19T06:31:22.629Z,100044.81
2023-03-19T06:33:05.269Z,100052.81
2023-03-19T06:34:30.488Z,100056.31
2023-03-19T06:36:09.164Z,100024.63
2023-03-19T06:37:39.559Z,100021.25
2023-03-19T06:39:03.381Z,100049.16
2023-03-19T06:40:26.750Z,100064.28
2023-03-19T06:41:47.739Z,100057.03
2023-03-19T06:43:14.311Z,100050.66
2023-03-19T06:44:36.673Z,100067.34
2023-03-19T06:45:58.774Z,100067.31
2023-03-19T06:47:21.306Z,100067.91
2023-03-19T06:48:43.791Z,100078.44
2023-03-19T06:50:08.684Z,100058.97
2023-03-19T06:51:35.249Z,100071.13
2023-03-19T06:52:58.662Z,100067.81
2023-03-19T06:54:20.708Z,100071.94
2023-03-19T06:55:44.712Z,100070.66
2023-03-19T06:57:07.099Z,100063.19
2023-03-19T06:58:29.468Z,100073.03
2023-03-19T06:59:51.945Z,100067.75
2023-03-19T07:01:14.463Z,100068.69
2023-03-19T07:02:37.083Z,100066.94
2023-03-19T07:03:57.981Z,100070.56
2023-03-19T07:05:20.382Z,100063.84
2023-03-19T07:06:44.348Z,100055.19
2023-03-19T07:08:12.110Z,100028.53
2023-03-19T07:09:34.249Z,100061.88
2023-03-19T07:10:58.523Z,100061.78
2023-03-19T07:12:20.986Z,100062.16
2023-03-19T07:13:43.603Z,100062.69
2023-03-19T07:15:06.759Z,100056.19
2023-03-19T07:16:27.716Z,100063.19
2023-03-19T07:17:50.370Z,100064.94
2023-03-19T07:19:12.667Z,100069.47
2023-03-19T07:20:34.128Z,100066.28
2023-03-19T07:21:58.353Z,100064.16
2023-03-19T07:23:20.711Z,100073.41
2023-03-19T07:24:42.870Z,100075.44
2023-03-19T07:26:05.155Z,100063.25
2023-03-19T07:27:27.085Z,100053.38
2023-03-19T07:28:48.737Z,100071.16
2023-03-19T07:30:12.409Z,100062.31
2023-03-19T07:31:34.845Z,100066.56
2023-03-19T07:32:57.142Z,100058.31
2023-03-19T07:34:18.614Z,100064.63
2023-03-19T07:35:39.761Z,100063.50
2023-03-19T07:37:03.134Z,100066.94
2023-03-19T07:38:25.130Z,100074.66
2023-03-19T07:39:46.161Z,100081.94
2023-03-19T07:41:08.359Z,100078.84
2023-03-19T07:42:30.278Z,100089.91
2023-03-19T07:43:52.294Z,100091.81
2023-03-19T07:45:14.497Z,100095.56
2023-03-19T07:46:36.453Z,100086.63
2023-03-19T07:47:58.181Z,100094.28
2023-03-19T07:49:20.669Z,100066.34
2023-03-19T07:50:43.018Z,100087.81
2023-03-19T07:52:06.882Z,100087.16
2023-03-19T07:53:28.924Z,100078.97
2023-03-19T07:54:52.490Z,100084.59
2023-03-19T07:56:14.603Z,100076.38
2023-03-19T07:57:36.861Z,100085.94
2023-03-19T07:58:59.787Z,100084.16
2023-03-19T08:00:25.415Z,100081.97
2023-03-19T08:01:47.734Z,100082.09
2023-03-19T08:03:10.263Z,100074.94
2023-03-19T08:04:32.230Z,100083.63
2023-03-19T08:05:54.062Z,100077.16
2023-03-19T08:07:17.135Z,100082.66
2023-03-19T08:08:39.533Z,100087.38
2023-03-19T08:10:01.191Z,100085.88
2023-03-19T08:11:24.304Z,100077.09
2023-03-19T08:12:46.762Z,100078.06
2023-03-19T08:14:09.203Z,100072.38
2023-03-19T08:15:31.734Z,100063.94
2023-03-19T08:16:53.932Z,100046.44
2023-03-19T08:18:16.961Z,100074.19
2023-03-19T08:19:39.322Z,100071.78
2023-03-19T08:21:01.700Z,100065.56
2023-03-19T08:22:25.465Z,100064.78
2023-03-19T08:23:47.924Z,100058.00
2023-03-19T08:25:10.744Z,100073.16
2023-03-19T08:26:33.714Z,100070.00
2023-03-19T08:27:56.403Z,100070.94
2023-03-19T08:29:19.275Z,100085.53
2023-03-19T08:30:41.570Z,100084.81
2023-03-19T08:32:03.157Z,100093.13
2023-03-19T08:33:25.752Z,100087.78
2023-03-19T08:34:49.699Z,100080.94
2023-03-19T08:36:14.277Z,100068.50
2023-03-19T08:37:38.018Z,100066.38
2023-03-19T08:39:00.691Z,100063.69
2023-03-19T08:40:22.421Z,100055.72
2023-03-19T08:41:44.768Z,100063.38
2023-03-19T08:43:07.814Z,100065.34
2023-03-19T08:44:30.126Z,100055.63
2023-03-19T08:45:52.089Z,100074.47
2023-03-19T08:47:14.726Z,100076.41
2023-03-19T08:48:50.986Z,100071.91
2023-03-19T08:50:47.970Z,100066.84
2023-03-19T08:52:15.366Z,100063.06
2023-03-19T08:53:40.130Z,100068.88
2023-03-19T08:55:02.540Z,100063.53
2023-03-19T08:56:25.433Z,100063.78
2023-03-19T08:57:47.451Z,100064.28
2023-03-19T08:59:10.038Z,100062.03
2023-03-19T09:00:32.197Z,100059.75
2023-03-19T09:01:55.480Z,100059.47
2023-03-19T09:03:19.219Z,100057.16
2023-03-19T09:04:42.507Z,100066.13
2023-03-19T09:06:07.113Z,100063.16
2023-03-19T09:07:29.241Z,100067.72
2023-03-19T09:08:52.188Z,100062.19
2023-03-19T09:10:14.430Z,100066.69
2023-03-19T09:11:36.573Z,100068.09
2023-03-19T09:12:58.918Z,100063.75
2023-03-19T09:14:23.206Z,100058.69
2023-03-19T09:15:45.298Z,100072.38
2023-03-19T09:17:08.253Z,100066.25
2023-03-19T09:18:31.205Z,100068.84
2023-03-19T09:19:53.305Z,100065.00
2023-03-19T09:21:15.400Z,100056.44
2023-03-19T09:22:37.675Z,100055.91
2023-03-19T09:24:01.352Z,100042.44
2023-03-19T09:25:23.836Z,100048.75
2023-03-19T09:26:46.212Z,100044.94
2023-03-19T09:28:08.741Z,100053.44
2023-03-19T09:29:31.550Z,100051.81
2023-03-19T09:30:54.215Z,100046.53
2023-03-19T09:32:16.678Z,100043.97
2023-03-19T09:33:38.840Z,100047.69
2023-03-19T09:35:00.866Z,100043.13
2023-03-19T09:36:23.322Z,100055.19
2023-03-19T09:37:45.942Z,100056.03
2023-03-19T09:39:10.070Z,100058.09
2023-03-19T09:40:38.310Z,100052.88
2023-03-19T09:42:17.133Z,100053.44
2023-03-19T09:43:58.285Z,100046.47
2023-03-19T09:45:21.475Z,100056.84
2023-03-19T09:46:48.469Z,100054.06
2023-03-19T09:48:18.293Z,100047.66
2023-03-19T09:49:45.012Z,100047.16
2023-03-19T09:51:10.695Z,100026.13
2023-03-19T09:52:43.354Z,100029.28
2023-03-19T09:54:20.356Z,100019.28
2023-03-19T09:55:47.020Z,100031.03
2023-03-19T09:57:13.213Z,100034.78
2023-03-19T09:58:38.577Z,100029.56
2023-03-19T10:00:07.121Z,100027.56
2023-03-19T10:01:35.801Z,100047.97
2023-03-19T10:03:08.288Z,100047.22
2023-03-19T10:04:43.885Z,100045.31
2023-03-19T10:06:20.248Z,100043.66
2023-03-19T10:07:56.991Z,100034.75
2023-03-19T10:09:46.131Z,100022.22
2023-03-19T10:11:29.939Z,100023.84
2023-03-19T10:13:01.464Z,100018.31
2023-03-19T10:14:49.490Z,100009.03
2023-03-19T10:16:26.803Z,100009.69
2023-03-19T10:17:58.821Z,100017.47
2023-03-19T10:19:26.615Z,100018.28
2023-03-19T10:20:56.844Z,100010.16
2023-03-19T10:22:23.398Z,100012.31
2023-03-19T10:23:50.203Z,100015.63
2023-03-19T10:25:20.340Z,100011.53
2023-03-19T10:26:43.565Z,100014.38
2023-03-19T10:28:16.450Z,100006.44
2023-03-19T10:29:39.340Z,100014.63
2023-03-19T10:31:15.272Z,100020.47
2023-03-19T10:32:42.521Z,100014.25
2023-03-19T10:34:21.270Z,100018.47
2023-03-19T10:35:46.400Z,100018.25
2023-03-19T10:37:16.635Z,100025.06
2023-03-19T10:38:42.612Z,100019.28
2023-03-19T10:40:12.853Z,100028.34
2023-03-19T10:41:51.363Z,100013.22
2023-03-19T10:43:19.923Z,100017.91
2023-03-19T10:44:50.262Z,100006.91
2023-03-19T10:46:15.973Z,100006.34
2023-03-19T10:47:41.801Z,99997.75
2023-03-19T10:49:04.331Z,100009.28
2023-03-19T10:50:31.766Z,100005.34
2023-03-19T10:51:54.273Z,100008.59
2023-03-19T10:53:32.364Z,100007.16
2023-03-19T10:54:58.060Z,100001.28
2023-03-19T10:56:23.274Z,100005.91
2023-03-19T10:57:50.743Z,100003.09
2023-03-19T10:59:28.000Z,100002.94
2023-03-19T11:00:58.091Z,100002.06
2023-03-19T11:02:23.401Z,100002.75
2023-03-19T11:03:53.328Z,99996.00
2023-03-19T11:05:26.077Z,100003.84
2023-03-19T11:06:51.237Z,99999.00
2023-03-19T11:08:35.010Z,100000.81
2023-03-19T11:09:58.128Z,99995.69
2023-03-19T11:11:28.280Z,99986.47
2023-03-19T11:12:56.563Z,99995.34
2023-03-19T11:14:20.979Z,99963.53
2023-03-19T11:15:43.547Z,99987.06
2023-03-19T11:17:08.951Z,99989.34
2023-03-19T11:18:37.505Z,99996.59
2023-03-19T11:20:01.122Z,99986.41
2023-03-19T11:21:26.217Z,99988.75
2023-03-19T11:22:51.714Z,99987.00
2023-03-19T11:24:14.690Z,99990.13
2023-03-19T11:25:40.839Z,99993.59
2023-03-19T11:27:03.704Z,99981.50
2023-03-19T11:28:33.782Z,99987.22
2023-03-19T11:29:55.158Z,99983.75
2023-03-19T11:31:25.622Z,99971.75
2023-03-19T11:33:23.998Z,99974.63
2023-03-19T11:34:54.095Z,99976.22
2023-03-19T11:36:24.269Z,99972.16
2023-03-19T11:37:55.998Z,99971.41
2023-03-19T11:39:28.661Z,99958.84
2023-03-19T11:41:02.254Z,99971.41
2023-03-19T11:42:47.878Z,99969.28
2023-03-19T11:44:18.156Z,99968.34
2023-03-19T11:45:50.840Z,99969.59
2023-03-19T11:47:27.099Z,99968.09
2023-03-19T11:49:17.430Z,99970.41
2023-03-19T11:50:48.295Z,99962.78
2023-03-19T11:52:21.341Z,99963.06
2023-03-19T11:54:00.486Z,99957.25
2023-03-19T11:55:33.007Z,99957.16
2023-03-19T11:57:02.395Z,99955.31
2023-03-19T11:58:59.453Z,99948.53
2023-03-19T12:00:33.339Z,99949.00
2023-03-19T12:02:30.742Z,99939.00
2023-03-19T12:04:11.221Z,99945.69
2023-03-19T12:05:37.443Z,99937.66
2023-03-19T12:07:08.683Z,99943.41
2023-03-19T12:08:38.943Z,99947.38
2023-03-19T12:10:18.702Z,99947.28
2023-03-19T12:11:54.269Z,99954.53
2023-03-19T12:13:32.282Z,99947.06
2023-03-19T12:15:06.681Z,99951.94
2023-03-19T12:16:46.562Z,99935.22
2023-03-19T12:18:19.398Z,99948.25
2023-03-19T12:20:12.870Z,99956.19
2023-03-19T12:21:47.713Z,99945.75
2023-03-19T12:23:21.707Z,99958.91
2023-03-19T12:25:05.245Z,99957.59
2023-03-19T12:26:33.455Z,99943.75
2023-03-19T12:28:01.877Z,99942.66
2023-03-19T12:29:32.033Z,99952.78
2023-03-19T12:31:08.394Z,99953.72
2023-03-19T12:32:54.210Z,99952.41
2023-03-19T12:34:26.155Z,99957.63
2023-03-19T12:35:51.910Z,99948.38
2023-03-19T12:37:21.685Z,99951.91
2023-03-19T12:38:52.406Z,99956.53
2023-03-19T12:40:27.345Z,99944.94
2023-03-19T12:42:06.669Z,99953.13
2023-03-19T12:43:35.121Z,99951.09
2023-03-19T12:45:00.244Z,99947.22
2023-03-19T12:46:28.709Z,99947.66
2023-03-19T12:47:58.621Z,99941.25
2023-03-19T12:49:26.556Z,99944.47
2023-03-19T12:50:54.927Z,99940.81
2023-03-19T12:52:23.992Z,99943.84
2023-03-19T12:53:55.517Z,99945.66
2023-03-19T12:55:22.094Z,99939.75
2023-03-19T12:56:51.094Z,99940.66
2023-03-19T12:58:22.255Z,99923.38
2023-03-19T12:59:53.243Z,99933.78
2023-03-19T13:01:22.408Z,99925.97
2023-03-19T13:02:49.254Z,99921.91
2023-03-19T13:04:19.424Z,99933.19
2023-03-19T13:05:46.090Z,99928.56
2023-03-19T13:07:15.085Z,99928.44
2023-03-19T13:08:45.116Z,99933.41
2023-03-19T13:10:11.029Z,99925.50
2023-03-19T13:11:42.576Z,99921.78
2023-03-19T13:13:14.373Z,99925.59
2023-03-19T13:14:48.490Z,99925.34
2023-03-19T13:16:23.131Z,99932.81
2023-03-19T13:17:58.495Z,99935.66
2023-03-19T13:19:30.673Z,99931.06
2023-03-19T13:21:05.894Z,99926.19
2023-03-19T13:22:32.217Z,99929.03
2023-03-19T13:24:06.444Z,99930.94
2023-03-19T13:25:34.767Z,99934.72
2023-03-19T13:27:01.110Z,99932.22
2023-03-19T13:28:29.618Z,99926.91
2023-03-19T13:30:07.839Z,99924.16
2023-03-19T13:31:35.247Z,99923.66
2023-03-19T13:33:05.180Z,99930.19
2023-03-19T13:34:30.450Z,99917.31
2023-03-19T13:35:53.810Z,99913.78
2023-03-19T13:37:19.812Z,99917.44
2023-03-19T13:38:46.334Z,99920.84
2023-03-19T13:40:42.720Z,99916.78
2023-03-19T13:42:20.193Z,99903.59
2023-03-19T13:43:44.446Z,99923.38
2023-03-19T13:45:51.403Z,99919.94
2023-03-19T13:47:39.906Z,99920.00
2023-03-19T13:49:33.756Z,99911.50
2023-03-19T13:51:01.969Z,99915.72
2023-03-19T13:52:49.754Z,99916.88
2023-03-19T13:54:18.869Z,99906.81
2023-03-19T13:55:52.516Z,99907.28
2023-03-19T13:57:37.206Z,99913.47
2023-03-19T13:59:25.393Z,99914.06
2023-03-19T14:01:01.470Z,99919.03
2023-03-19T14:02:54.544Z,99916.94
2023-03-19T14:04:23.884Z,99908.91
2023-03-19T14:05:49.806Z,99910.56
2023-03-19T14:07:19.226Z,99901.97
2023-03-19T14:08:47.828Z,99901.13
2023-03-19T14:10:18.759Z,99902.56
2023-03-19T14:11:41.695Z,99903.13
2023-03-19T14:13:08.712Z,99899.38
2023-03-19T14:14:32.171Z,99894.63
2023-03-19T14:16:07.261Z,99887.75
2023-03-19T14:17:35.158Z,99898.31
2023-03-19T14:19:01.248Z,99887.53
2023-03-19T14:20:39.323Z,99902.09
2023-03-19T14:22:20.166Z,99878.50
2023-03-19T14:23:46.809Z,99877.22
2023-03-19T14:25:18.756Z,99897.81
2023-03-19T14:26:44.815Z,99876.81
2023-03-19T14:28:10.869Z,99889.53
2023-03-19T14:29:36.506Z,99898.84
2023-03-19T14:31:00.538Z,99876.22
2023-03-19T14:32:31.579Z,99888.53
2023-03-19T14:33:59.840Z,99882.72
2023-03-19T14:35:26.524Z,99892.81
2023-03-19T14:36:58.028Z,99906.19
2023-03-19T14:38:33.452Z,99867.44
2023-03-19T14:40:04.628Z,99902.13
2023-03-19T14:41:32.486Z,99894.28
2023-03-19T14:43:06.715Z,99895.56
2023-03-19T14:44:46.028Z,99900.25
2023-03-19T14:46:23.455Z,99887.81
2023-03-19T14:48:08.415Z,99895.84
2023-03-19T14:49:54.150Z,99869.47
2023-03-19T14:51:39.836Z,99891.28
2023-03-19T14:53:07.166Z,99891.72
2023-03-19T14:54:37.446Z,99893.81
2023-03-19T14:56:11.750Z,99894.69
2023-03-19T14:57:37.420Z,99894.06
2023-03-19T14:59:03.925Z,99894.28
2023-03-19T15:00:26.446Z,99888.50
2023-03-19T15:01:53.024Z,99892.50
2023-03-19T15:03:23.116Z,99896.84
2023-03-19T15:04:47.376Z,99898.75
2023-03-19T15:06:13.756Z,99892.72
2023-03-19T15:07:41.138Z,99892.34
2023-03-19T15:09:11.495Z,99862.84
2023-03-19T15:10:49.512Z,99897.78
2023-03-19T15:12:31.430Z,99891.72
2023-03-19T15:14:14.977Z,99895.28
2023-03-19T15:15:44.546Z,99893.38
2023-03-19T15:17:15.678Z,99894.00
2023-03-19T15:18:39.291Z,99892.34
2023-03-19T15:20:03.718Z,99894.59
2023-03-19T15:21:29.755Z,99867.44
2023-03-19T15:22:56.478Z,99882.75
2023-03-19T15:24:19.409Z,99895.50
2023-03-19T15:25:51.907Z,99896.09
2023-03-19T15:27:24.521Z,99895.50
2023-03-19T15:28:49.695Z,99897.38
2023-03-19T15:30:22.267Z,99901.63
2023-03-19T15:31:52.356Z,99898.06
2023-03-19T15:33:37.307Z,99892.94
2023-03-19T15:35:06.354Z,99896.09
2023-03-19T15:36:37.940Z,99896.41
2023-03-19T15:38:03.863Z,99858.22
2023-03-19T15:39:48.763Z,99903.78
2023-03-19T15:41:20.877Z,99899.88
2023-03-19T15:42:45.055Z,99901.78
2023-03-19T15:44:20.697Z,99867.16
2023-03-19T15:45:47.637Z,99902.94
2023-03-19T15:47:16.974Z,99878.47
2023-03-19T15:48:45.968Z,99861.41
2023-03-19T15:50:14.091Z,99895.38
2023-03-19T15:51:37.323Z,99874.00
2023-03-19T15:53:02.294Z,99905.00
2023-03-19T15:54:25.466Z,99896.94
2023-03-19T15:55:51.479Z,99904.28
2023-03-19T15:57:18.385Z,99907.03
2023-03-19T15:58:44.464Z,99914.38
2023-03-19T16:00:11.674Z,99914.00
2023-03-19T16:01:37.794Z,99908.69
2023-03-19T16:03:00.187Z,99924.31
2023-03-19T16:04:30.136Z,99920.19
2023-03-19T16:06:00.116Z,99908.41
2023-03-19T16:07:28.209Z,99907.59
2023-03-19T16:08:53.631Z,99919.88
2023-03-19T16:10:38.405Z,99924.69
2023-03-19T16:12:01.929Z,99922.84
2023-03-19T16:13:37.740Z,99912.03
2023-03-19T16:15:00.412Z,99921.59
2023-03-19T16:16:25.114Z,99882.09
2023-03-19T16:17:49.424Z,99925.13
2023-03-19T16:19:29.848Z,99927.06
2023-03-19T16:21:02.120Z,99897.50
2023-03-19T16:22:26.888Z,99890.63
2023-03-19T16:23:56.175Z,99927.47
2023-03-19T16:25:20.240Z,99932.28
2023-03-19T16:26:44.757Z,99896.88
2023-03-19T16:28:08.003Z,99929.13
2023-03-19T16:29:35.849Z,99914.78
2023-03-19T16:30:58.656Z,99937.47
2023-03-19T16:32:23.586Z,99915.00
2023-03-19T16:33:46.596Z,99894.63
2023-03-19T16:35:14.934Z,99932.06
2023-03-19T16:36:38.238Z,99908.97
2023-03-19T16:38:13.778Z,99928.75
2023-03-19T16:39:37.823Z,99934.56
2023-03-19T16:41:18.529Z,99914.56
2023-03-19T16:42:42.084Z,99938.94
2023-03-19T16:44:17.058Z,99915.84
2023-03-19T16:45:42.647Z,99912.28
2023-03-19T16:47:12.234Z,99933.53
2023-03-19T16:48:34.413Z,99912.28
2023-03-19T16:49:56.854Z,99943.31
2023-03-19T16:51:21.652Z,99948.09
2023-03-19T16:52:44.300Z,99913.34
2023-03-19T16:54:06.537Z,99926.00
2023-03-19T16:55:32.271Z,99946.44
2023-03-19T16:56:55.504Z,99939.56
2023-03-19T16:58:20.463Z,99937.88